createdAt,value
2019-02-25T00:00:15.182Z,5.20
2019-02-25T00:01:15.172Z,5.08
2019-02-25T00:02:15.165Z,5.05
2019-02-25T00:03:15.155Z,4.99
2019-02-25T00:04:15.180Z,5.04
2019-02-25T00:05:15.141Z,5.08
2019-02-25T00:06:15.117Z,5.05
2019-02-25T00:07:15.112Z,5.04
2019-02-25T00:08:15.119Z,5.05
2019-02-25T00:09:15.106Z,4.96
2019-02-25T00:10:15.167Z,5.08
2019-02-25T00:11:15.074Z,4.99
2019-02-25T00:12:15.064Z,5.02
2019-02-25T00:13:15.061Z,5.06
2019-02-25T00:14:15.076Z,4.96
2019-02-25T00:15:15.025Z,4.99
2019-02-25T00:16:15.021Z,4.93
2019-02-25T00:17:15.013Z,5.04
2019-02-25T00:18:14.994Z,5.01
2019-02-25T00:19:15.006Z,4.99
2019-02-25T00:20:14.999Z,4.97
2019-02-25T00:21:14.964Z,4.97
2019-02-25T00:22:14.958Z,4.99
2019-02-25T00:23:14.947Z,5.01
2019-02-25T00:24:14.945Z,4.96
2019-02-25T00:25:14.947Z,5.02
2019-02-25T00:26:14.979Z,4.94
2019-02-25T00:27:14.904Z,4.91
2019-02-25T00:28:14.890Z,4.96
2019-02-25T00:29:14.924Z,4.97
2019-02-25T00:30:14.887Z,4.94
2019-02-25T00:31:14.887Z,4.86
2019-02-25T00:32:14.897Z,4.99
2019-02-25T00:33:14.846Z,4.96
2019-02-25T00:34:14.856Z,4.99
2019-02-25T00:35:14.828Z,4.83
2019-02-25T00:36:14.822Z,4.93
2019-02-25T00:37:14.802Z,4.91
2019-02-25T00:38:14.808Z,4.84
2019-02-25T00:39:14.778Z,4.79
2019-02-25T00:40:14.759Z,4.84
2019-02-25T00:41:14.777Z,4.77
2019-02-25T00:42:14.766Z,4.80
2019-02-25T00:43:14.764Z,4.75
2019-02-25T00:44:14.726Z,4.80
2019-02-25T00:45:14.721Z,4.80
2019-02-25T00:46:14.700Z,4.79
2019-02-25T00:47:14.696Z,4.74
2019-02-25T00:48:14.730Z,4.77
2019-02-25T00:49:14.709Z,4.77
2019-02-25T00:50:14.660Z,4.71
2019-02-25T00:51:14.647Z,4.74
2019-02-25T00:52:14.652Z,4.74
2019-02-25T00:53:14.630Z,4.69
2019-02-25T00:54:14.655Z,4.69
2019-02-25T00:55:14.616Z,4.69
2019-02-25T00:56:14.603Z,4.56
2019-02-25T00:57:14.592Z,4.62
2019-02-25T00:58:14.573Z,4.59
2019-02-25T00:59:14.566Z,4.56
2019-02-25T01:00:14.582Z,4.59
2019-02-25T01:01:14.543Z,4.62
2019-02-25T01:02:14.545Z,4.67
2019-02-25T01:03:14.536Z,4.49
2019-02-25T01:04:14.513Z,4.50
2019-02-25T01:05:14.528Z,4.54
2019-02-25T01:06:14.505Z,4.54
2019-02-25T01:07:14.486Z,4.47
2019-02-25T01:08:14.476Z,4.49
2019-02-25T01:09:14.473Z,4.42
2019-02-25T01:10:14.479Z,4.43
2019-02-25T01:11:14.452Z,4.50
2019-02-25T01:12:14.429Z,4.44
2019-02-25T01:13:14.422Z,4.42
2019-02-25T01:14:14.415Z,4.46
2019-02-25T01:15:14.443Z,4.38
2019-02-25T01:16:14.390Z,4.39
2019-02-25T01:17:14.382Z,4.38
2019-02-25T01:18:14.365Z,4.39
2019-02-25T01:19:14.359Z,4.32
2019-02-25T01:20:14.350Z,4.32
2019-02-25T01:21:14.356Z,4.29
2019-02-25T01:22:14.323Z,4.34
2019-02-25T01:23:14.318Z,4.38
2019-02-25T01:24:14.303Z,4.36
2019-02-25T01:25:14.295Z,4.43
2019-02-25T01:26:14.315Z,4.35
2019-02-25T01:27:14.285Z,4.46
2019-02-25T01:28:14.269Z,4.38
2019-02-25T01:29:14.265Z,4.35
2019-02-25T01:30:14.240Z,4.43
2019-02-25T01:31:14.257Z,4.31
2019-02-25T01:32:14.222Z,4.32
2019-02-25T01:33:14.229Z,4.35
2019-02-25T01:34:14.201Z,4.28
2019-02-25T01:35:14.191Z,4.28
2019-02-25T01:36:14.177Z,4.29
2019-02-25T01:37:14.189Z,4.21
2019-02-25T01:38:15.643Z,4.18
2019-02-25T01:39:14.148Z,4.18
2019-02-25T01:40:14.139Z,4.18
2019-02-25T01:41:14.152Z,4.16
2019-02-25T01:42:14.118Z,4.18
2019-02-25T01:43:14.120Z,4.13
2019-02-25T01:44:14.097Z,4.13
2019-02-25T01:45:14.081Z,4.16
2019-02-25T01:46:14.078Z,4.08
2019-02-25T01:47:14.066Z,4.04
2019-02-25T01:48:14.086Z,4.11
2019-02-25T01:49:14.049Z,4.14
2019-02-25T01:50:14.041Z,4.18
2019-02-25T01:51:14.024Z,4.10
2019-02-25T01:52:14.012Z,4.13
2019-02-25T01:53:14.004Z,4.16
2019-02-25T01:54:14.015Z,4.07
2019-02-25T01:55:13.976Z,4.07
2019-02-25T01:56:13.979Z,4.16
2019-02-25T01:57:13.957Z,4.14
2019-02-25T01:58:13.954Z,4.17
2019-02-25T01:59:13.942Z,4.20
2019-02-25T02:00:14.079Z,4.20
2019-02-25T02:01:13.920Z,4.24
2019-02-25T02:02:13.911Z,4.20
2019-02-25T02:03:13.892Z,4.20
2019-02-25T02:04:13.927Z,4.26
2019-02-25T02:05:14.197Z,4.21
2019-02-25T02:06:13.879Z,4.17
2019-02-25T02:07:13.857Z,4.20
2019-02-25T02:08:13.848Z,4.18
2019-02-25T02:09:13.834Z,4.25
2019-02-25T02:10:13.844Z,4.21
2019-02-25T02:11:13.820Z,4.20
2019-02-25T02:12:13.810Z,4.17
2019-02-25T02:13:14.549Z,4.20
2019-02-25T02:14:13.777Z,4.25
2019-02-25T02:15:13.794Z,4.20
2019-02-25T02:16:13.757Z,4.28
2019-02-25T02:17:13.747Z,4.18
2019-02-25T02:18:13.740Z,4.21
2019-02-25T02:19:13.771Z,4.34
2019-02-25T02:20:13.733Z,4.35
2019-02-25T02:21:13.713Z,4.38
2019-02-25T02:22:13.697Z,4.39
2019-02-25T02:23:13.684Z,4.46
2019-02-25T02:24:13.678Z,4.49
2019-02-25T02:25:13.697Z,4.47
2019-02-25T02:26:13.663Z,4.38
2019-02-25T02:27:13.681Z,4.44
2019-02-25T02:28:13.629Z,4.39
2019-02-25T02:29:13.642Z,4.38
2019-02-25T02:30:13.638Z,4.49
2019-02-25T02:31:13.609Z,4.44
2019-02-25T02:32:13.615Z,4.43
2019-02-25T02:33:13.585Z,4.50
2019-02-25T02:34:13.568Z,4.49
2019-02-25T02:35:13.581Z,4.47
2019-02-25T02:36:13.548Z,4.38
2019-02-25T02:37:13.569Z,4.42
2019-02-25T02:38:13.534Z,4.38
2019-02-25T02:39:13.531Z,4.24
2019-02-25T02:40:13.503Z,4.31
2019-02-25T02:41:13.532Z,4.34
2019-02-25T02:42:13.491Z,4.34
2019-02-25T02:43:13.486Z,4.35
2019-02-25T02:44:13.471Z,4.17
2019-02-25T02:45:13.464Z,4.24
2019-02-25T02:46:13.442Z,4.24
2019-02-25T02:47:13.454Z,4.21
2019-02-25T02:48:13.421Z,4.20
2019-02-25T02:49:13.428Z,4.17
2019-02-25T02:50:13.411Z,4.13
2019-02-25T02:51:13.418Z,4.18
2019-02-25T02:52:13.390Z,4.07
2019-02-25T02:53:13.390Z,4.10
2019-02-25T02:54:13.362Z,4.04
2019-02-25T02:55:13.359Z,3.96
2019-02-25T02:56:13.375Z,3.99
2019-02-25T02:57:13.339Z,3.89
2019-02-25T02:58:13.325Z,3.86
2019-02-25T02:59:13.307Z,3.84
2019-02-25T03:00:13.301Z,3.88
2019-02-25T03:01:13.311Z,3.95
2019-02-25T03:02:13.284Z,3.90
2019-02-25T03:03:13.278Z,3.95
2019-02-25T03:04:13.264Z,3.95
2019-02-25T03:05:13.251Z,3.88
2019-02-25T03:06:13.264Z,3.88
2019-02-25T03:07:13.220Z,3.84
2019-02-25T03:08:13.212Z,3.84
2019-02-25T03:09:13.203Z,3.81
2019-02-25T03:10:13.247Z,3.81
2019-02-25T03:11:13.190Z,3.81
2019-02-25T03:12:13.239Z,3.71
2019-02-25T03:13:13.166Z,3.77
2019-02-25T03:14:13.160Z,3.82
2019-02-25T03:15:13.158Z,3.72
2019-02-25T03:16:13.150Z,3.81
2019-02-25T03:17:13.151Z,3.77
2019-02-25T03:18:13.117Z,3.84
2019-02-25T03:19:13.097Z,3.80
2019-02-25T03:20:13.135Z,3.82
2019-02-25T03:21:13.078Z,3.74
2019-02-25T03:22:13.102Z,3.75
2019-02-25T03:23:13.092Z,3.75
2019-02-25T03:24:13.057Z,3.82
2019-02-25T03:25:13.045Z,3.84
2019-02-25T03:26:13.027Z,3.72
2019-02-25T03:27:13.016Z,3.84
2019-02-25T03:28:13.031Z,3.77
2019-02-25T03:29:13.034Z,3.74
2019-02-25T03:30:12.995Z,3.75
2019-02-25T03:31:12.976Z,3.93
2019-02-25T03:32:12.980Z,3.84
2019-02-25T03:33:12.953Z,3.81
2019-02-25T03:34:12.951Z,3.92
2019-02-25T03:35:12.955Z,3.84
2019-02-25T03:36:12.931Z,3.90
2019-02-25T03:37:12.915Z,3.89
2019-02-25T03:38:12.901Z,3.86
2019-02-25T03:39:12.924Z,3.77
2019-02-25T03:40:12.883Z,3.72
2019-02-25T03:41:12.875Z,3.80
2019-02-25T03:42:12.884Z,3.77
2019-02-25T03:43:12.871Z,3.81
2019-02-25T03:44:12.845Z,3.82
2019-02-25T03:45:12.850Z,3.80
2019-02-25T03:46:12.823Z,3.81
2019-02-25T03:47:12.815Z,3.81
2019-02-25T03:48:12.808Z,3.90
2019-02-25T03:49:12.793Z,3.92
2019-02-25T03:50:12.806Z,3.93
2019-02-25T03:51:12.763Z,3.89
2019-02-25T03:52:12.755Z,3.98
2019-02-25T03:53:12.748Z,3.98
2019-02-25T03:54:12.755Z,3.95
2019-02-25T03:55:12.756Z,4.02
2019-02-25T03:56:12.744Z,3.98
2019-02-25T03:57:12.738Z,4.00
2019-02-25T03:58:12.693Z,3.92
2019-02-25T03:59:12.684Z,4.00
2019-02-25T04:00:12.694Z,3.99
2019-02-25T04:01:12.694Z,3.92
2019-02-25T04:02:12.653Z,3.93
2019-02-25T04:03:12.639Z,3.92
2019-02-25T04:04:12.629Z,3.82
2019-02-25T04:05:12.629Z,3.78
2019-02-25T04:06:12.639Z,3.74
2019-02-25T04:07:12.614Z,3.78
2019-02-25T04:08:12.608Z,3.75
2019-02-25T04:09:12.585Z,3.82
2019-02-25T04:10:12.571Z,3.88
2019-02-25T04:11:12.578Z,3.84
2019-02-25T04:12:12.545Z,3.82
2019-02-25T04:13:12.543Z,3.88
2019-02-25T04:14:12.565Z,3.86
2019-02-25T04:15:12.522Z,3.90
2019-02-25T04:16:12.505Z,3.75
2019-02-25T04:17:12.497Z,3.75
2019-02-25T04:18:12.491Z,3.68
2019-02-25T04:19:12.482Z,3.60
2019-02-25T04:20:12.496Z,3.57
2019-02-25T04:21:12.460Z,3.53
2019-02-25T04:22:12.445Z,3.52
2019-02-25T04:23:12.438Z,3.46
2019-02-25T04:24:12.422Z,3.50
2019-02-25T04:25:12.421Z,3.42
2019-02-25T04:26:12.426Z,3.41
2019-02-25T04:27:12.419Z,3.49
2019-02-25T04:28:12.388Z,3.50
2019-02-25T04:29:12.394Z,3.46
2019-02-25T04:30:12.360Z,3.39
2019-02-25T04:31:12.353Z,3.39
2019-02-25T04:32:12.363Z,3.35
2019-02-25T04:33:12.337Z,3.35
2019-02-25T04:34:12.327Z,3.44
2019-02-25T04:35:12.316Z,3.41
2019-02-25T04:36:12.300Z,3.44
2019-02-25T04:37:12.305Z,3.44
2019-02-25T04:38:12.282Z,3.42
2019-02-25T04:39:12.279Z,3.46
2019-02-25T04:40:12.268Z,3.50
2019-02-25T04:41:12.256Z,3.46
2019-02-25T04:42:12.260Z,3.46
2019-02-25T04:43:12.228Z,3.42
2019-02-25T04:44:12.216Z,3.44
2019-02-25T04:45:12.206Z,3.46
2019-02-25T04:46:12.200Z,3.50
2019-02-25T04:47:12.214Z,3.41
2019-02-25T04:48:12.199Z,3.39
2019-02-25T04:49:12.182Z,3.42
2019-02-25T04:50:12.193Z,3.53
2019-02-25T04:51:12.189Z,3.46
2019-02-25T04:52:12.180Z,3.52
2019-02-25T04:53:12.163Z,3.59
2019-02-25T04:54:12.107Z,3.63
2019-02-25T04:55:12.112Z,3.56
2019-02-25T04:56:12.088Z,3.67
2019-02-25T04:57:12.097Z,3.57
2019-02-25T04:58:12.090Z,3.53
2019-02-25T04:59:12.074Z,3.70
2019-02-25T05:00:12.061Z,3.59
2019-02-25T05:01:12.050Z,3.57
2019-02-25T05:02:12.066Z,3.60
2019-02-25T05:03:12.018Z,3.59
2019-02-25T05:04:12.019Z,3.60
2019-02-25T05:05:12.008Z,3.64
2019-02-25T05:06:11.992Z,3.62
2019-02-25T05:07:11.978Z,3.52
2019-02-25T05:08:11.994Z,3.53
2019-02-25T05:09:11.957Z,3.46
2019-02-25T05:10:11.957Z,3.44
2019-02-25T05:11:11.950Z,3.37
2019-02-25T05:12:11.935Z,3.34
2019-02-25T05:13:11.974Z,3.25
2019-02-25T05:14:11.903Z,3.39
2019-02-25T05:15:11.892Z,3.35
2019-02-25T05:16:11.885Z,3.34
2019-02-25T05:17:11.890Z,3.42
2019-02-25T05:18:11.866Z,3.35
2019-02-25T05:19:11.911Z,3.23
2019-02-25T05:20:11.861Z,3.28
2019-02-25T05:21:11.833Z,3.31
2019-02-25T05:22:11.847Z,3.28
2019-02-25T05:23:11.848Z,3.33
2019-02-25T05:24:11.807Z,3.20
2019-02-25T05:25:11.815Z,3.25
2019-02-25T05:26:11.782Z,3.25
2019-02-25T05:27:11.771Z,3.23
2019-02-25T05:28:11.766Z,3.23
2019-02-25T05:29:12.402Z,3.23
2019-02-25T05:30:11.776Z,3.23
2019-02-25T05:31:11.736Z,3.20
2019-02-25T05:32:11.723Z,3.26
2019-02-25T05:33:11.715Z,3.19
2019-02-25T05:34:11.708Z,3.30
2019-02-25T05:35:11.710Z,3.25
2019-02-25T05:36:11.758Z,3.26
2019-02-25T05:37:11.687Z,3.25
2019-02-25T05:38:11.659Z,3.19
2019-02-25T05:39:11.656Z,3.20
2019-02-25T05:40:11.638Z,3.22
2019-02-25T05:41:11.622Z,3.22
2019-02-25T05:42:11.984Z,3.22
2019-02-25T05:43:11.610Z,3.26
2019-02-25T05:44:11.609Z,3.25
2019-02-25T05:45:11.602Z,3.30
2019-02-25T05:46:11.593Z,3.23
2019-02-25T05:47:11.586Z,3.20
2019-02-25T05:48:11.549Z,3.17
2019-02-25T05:49:11.538Z,3.20
2019-02-25T05:50:12.454Z,3.13
2019-02-25T05:51:11.572Z,3.05
2019-02-25T05:52:11.523Z,3.17
2019-02-25T05:53:11.499Z,3.20
2019-02-25T05:54:11.494Z,3.17
2019-02-25T05:55:11.482Z,3.19
2019-02-25T05:56:11.473Z,3.19
2019-02-25T05:57:11.499Z,3.17
2019-02-25T05:58:11.451Z,3.16
2019-02-25T05:59:11.464Z,3.16
2019-02-25T06:00:11.439Z,3.13
2019-02-25T06:01:11.958Z,3.20
2019-02-25T06:02:11.410Z,3.23
2019-02-25T06:03:11.439Z,3.20
2019-02-25T06:04:11.394Z,3.20
2019-02-25T06:05:11.381Z,3.20
2019-02-25T06:06:11.370Z,3.17
2019-02-25T06:07:11.363Z,3.16
2019-02-25T06:08:11.368Z,3.17
2019-02-25T06:09:11.339Z,3.16
2019-02-25T06:10:11.382Z,3.16
2019-02-25T06:11:11.309Z,3.19
2019-02-25T06:12:11.301Z,3.05
2019-02-25T06:13:11.323Z,3.08
2019-02-25T06:14:11.302Z,3.05
2019-02-25T06:15:11.314Z,3.10
2019-02-25T06:16:11.274Z,3.05
2019-02-25T06:17:11.262Z,3.05
2019-02-25T06:18:11.237Z,3.10
2019-02-25T06:19:11.230Z,3.10
2019-02-25T06:20:11.219Z,3.16
2019-02-25T06:21:11.227Z,3.20
2019-02-25T06:22:11.202Z,3.25
2019-02-25T06:23:11.203Z,3.12
2019-02-25T06:24:11.175Z,3.20
2019-02-25T06:25:11.182Z,3.25
2019-02-25T06:26:11.191Z,3.25
2019-02-25T06:27:11.160Z,3.26
2019-02-25T06:28:11.141Z,3.22
2019-02-25T06:29:11.961Z,3.23
2019-02-25T06:30:11.116Z,3.31
2019-02-25T06:31:11.139Z,3.37
2019-02-25T06:32:11.092Z,3.37
2019-02-25T06:33:11.086Z,3.45
2019-02-25T06:34:11.080Z,3.53
2019-02-25T06:35:11.109Z,3.56
2019-02-25T06:36:11.059Z,3.63
2019-02-25T06:37:11.081Z,3.67
2019-02-25T06:38:11.038Z,3.75
2019-02-25T06:39:11.022Z,3.90
2019-02-25T06:40:11.023Z,4.00
2019-02-25T06:41:11.010Z,4.14
2019-02-25T06:42:10.991Z,4.21
2019-02-25T06:43:10.996Z,4.21
2019-02-25T06:44:10.999Z,4.31
2019-02-25T06:45:10.975Z,4.39
2019-02-25T06:46:10.957Z,4.54
2019-02-25T06:47:10.947Z,4.67
2019-02-25T06:48:10.951Z,4.93
2019-02-25T06:49:10.928Z,5.08
2019-02-25T06:50:10.928Z,5.26
2019-02-25T06:51:10.899Z,5.52
2019-02-25T06:52:10.887Z,5.60
2019-02-25T06:53:10.901Z,5.80
2019-02-25T06:54:10.872Z,6.11
2019-02-25T06:55:10.863Z,6.42
2019-02-25T06:56:10.873Z,6.64
2019-02-25T06:57:10.837Z,6.76
2019-02-25T06:58:10.830Z,6.83
2019-02-25T06:59:10.827Z,6.90
2019-02-25T07:00:10.810Z,7.09
2019-02-25T07:01:10.805Z,7.19
2019-02-25T07:02:10.806Z,7.45
2019-02-25T07:03:10.768Z,7.91
2019-02-25T07:04:10.784Z,8.20
2019-02-25T07:05:10.751Z,8.39
2019-02-25T07:06:10.748Z,8.70
2019-02-25T07:07:10.756Z,8.80
2019-02-25T07:08:10.731Z,8.91
2019-02-25T07:09:10.738Z,9.03
2019-02-25T07:10:10.763Z,9.10
2019-02-25T07:11:10.690Z,9.26
2019-02-25T07:12:10.707Z,9.42
2019-02-25T07:13:10.668Z,9.60
2019-02-25T07:14:10.656Z,9.86
2019-02-25T07:15:10.640Z,9.85
2019-02-25T07:16:10.665Z,10.07
2019-02-25T07:17:10.618Z,10.14
2019-02-25T07:18:10.651Z,10.29
2019-02-25T07:19:10.606Z,10.62
2019-02-25T07:20:10.606Z,10.83
2019-02-25T07:21:10.583Z,10.90
2019-02-25T07:22:10.570Z,10.99
2019-02-25T07:23:10.559Z,11.31
2019-02-25T07:24:10.599Z,11.41
2019-02-25T07:25:10.534Z,11.56
2019-02-25T07:26:10.541Z,11.67
2019-02-25T07:27:10.521Z,11.69
2019-02-25T07:28:10.518Z,12.00
2019-02-25T07:29:10.493Z,12.18
2019-02-25T07:30:10.512Z,12.43
2019-02-25T07:31:10.476Z,12.62
2019-02-25T07:32:10.472Z,12.85
2019-02-25T07:33:10.454Z,13.03
2019-02-25T07:34:10.485Z,13.22
2019-02-25T07:35:10.428Z,13.51
2019-02-25T07:36:10.423Z,13.68
2019-02-25T07:37:10.415Z,13.69
2019-02-25T07:38:10.409Z,13.83
2019-02-25T07:39:10.433Z,14.08
2019-02-25T07:40:10.399Z,13.96
2019-02-25T07:41:10.374Z,13.90
2019-02-25T07:42:10.360Z,14.12
2019-02-25T07:43:10.343Z,14.26
2019-02-25T07:44:10.339Z,14.64
2019-02-25T07:45:10.384Z,14.75
2019-02-25T07:46:10.311Z,14.71
2019-02-25T07:47:10.304Z,14.69
2019-02-25T07:48:10.287Z,14.78
2019-02-25T07:49:10.278Z,15.01
2019-02-25T07:50:10.327Z,15.23
2019-02-25T07:51:10.277Z,15.44
2019-02-25T07:52:10.257Z,15.60
2019-02-25T07:53:10.244Z,15.84
2019-02-25T07:54:10.226Z,15.91
2019-02-25T07:55:10.242Z,15.89
2019-02-25T07:56:10.205Z,15.84
2019-02-25T07:57:10.202Z,15.92
2019-02-25T07:58:10.190Z,16.06
2019-02-25T07:59:10.176Z,16.08
2019-02-25T08:00:10.165Z,16.04
2019-02-25T08:01:10.169Z,16.08
2019-02-25T08:02:10.149Z,16.26
2019-02-25T08:03:10.134Z,16.27
2019-02-25T08:04:10.133Z,16.07
2019-02-25T08:05:10.111Z,16.07
2019-02-25T08:06:11.964Z,16.25
2019-02-25T08:07:10.099Z,16.44
2019-02-25T08:08:10.072Z,16.41
2019-02-25T08:09:10.062Z,16.32
2019-02-25T08:10:10.070Z,16.14
2019-02-25T08:11:10.080Z,16.59
2019-02-25T08:12:10.050Z,16.44
2019-02-25T08:13:10.043Z,16.41
2019-02-25T08:14:10.011Z,16.03
2019-02-25T08:15:10.003Z,15.89
2019-02-25T08:16:10.014Z,15.91
2019-02-25T08:17:10.008Z,15.92
2019-02-25T08:18:09.978Z,15.85
2019-02-25T08:19:09.960Z,15.91
2019-02-25T08:20:09.992Z,15.88
2019-02-25T08:21:09.955Z,16.04
2019-02-25T08:22:09.930Z,16.10
2019-02-25T08:23:09.952Z,16.16
2019-02-25T08:24:09.920Z,16.11
2019-02-25T08:25:09.922Z,16.17
2019-02-25T08:26:09.905Z,16.25
2019-02-25T08:27:09.872Z,16.47
2019-02-25T08:28:09.881Z,16.81
2019-02-25T08:29:09.856Z,16.87
2019-02-25T08:30:09.853Z,17.07
2019-02-25T08:31:09.830Z,17.55
2019-02-25T08:32:09.814Z,17.73
2019-02-25T08:33:09.799Z,17.74
2019-02-25T08:34:18.106Z,17.81
2019-02-25T08:35:10.789Z,17.53
2019-02-25T08:36:09.777Z,16.42
2019-02-25T08:37:09.771Z,16.23
2019-02-25T08:38:09.773Z,16.18
2019-02-25T08:39:09.752Z,16.34
2019-02-25T08:40:11.609Z,16.67
2019-02-25T08:41:09.731Z,16.73
2019-02-25T08:42:09.713Z,16.63
2019-02-25T08:43:09.716Z,16.63
2019-02-25T08:44:09.698Z,16.81
2019-02-25T08:45:09.677Z,17.30
2019-02-25T08:46:09.668Z,17.24
2019-02-25T08:47:09.669Z,17.22
2019-02-25T08:48:09.680Z,17.02
2019-02-25T08:49:09.697Z,16.85
2019-02-25T08:50:09.625Z,16.78
2019-02-25T08:51:09.623Z,16.51
2019-02-25T08:52:09.609Z,16.42
2019-02-25T08:53:09.587Z,16.90
2019-02-25T08:54:09.582Z,17.14
2019-02-25T08:55:09.591Z,17.38
2019-02-25T08:56:09.563Z,17.17
2019-02-25T08:57:09.548Z,17.02
2019-02-25T08:58:09.552Z,17.40
2019-02-25T08:59:09.555Z,17.74
2019-02-25T09:00:09.536Z,17.96
2019-02-25T09:01:09.501Z,17.99
2019-02-25T09:02:09.504Z,18.13
2019-02-25T09:03:09.486Z,18.44
2019-02-25T09:04:09.475Z,18.46
2019-02-25T09:05:09.485Z,18.38
2019-02-25T09:06:09.532Z,18.32
2019-02-25T09:07:09.476Z,18.34
2019-02-25T09:08:09.443Z,18.53
2019-02-25T09:09:09.425Z,18.66
2019-02-25T09:10:09.442Z,19.07
2019-02-25T09:11:14.069Z,19.12
2019-02-25T09:12:10.379Z,19.28
2019-02-25T09:13:09.381Z,19.45
2019-02-25T09:14:09.370Z,19.55
2019-02-25T09:15:09.417Z,19.89
2019-02-25T09:16:09.367Z,19.75
2019-02-25T09:17:09.338Z,19.75
2019-02-25T09:18:09.327Z,19.17
2019-02-25T09:19:09.306Z,18.75
2019-02-25T09:20:09.312Z,18.54
2019-02-25T09:21:09.337Z,18.59
2019-02-25T09:22:09.275Z,18.68
2019-02-25T09:23:09.263Z,18.90
2019-02-25T09:24:09.267Z,19.09
2019-02-25T09:25:09.257Z,18.84
2019-02-25T09:26:09.239Z,18.74
2019-02-25T09:27:09.269Z,18.76
2019-02-25T09:28:09.232Z,18.13
2019-02-25T09:29:09.207Z,17.79
2019-02-25T09:30:09.218Z,17.99
2019-02-25T09:31:09.213Z,18.13
2019-02-25T09:32:09.169Z,18.20
2019-02-25T09:33:09.177Z,18.57
2019-02-25T09:34:09.174Z,18.64
2019-02-25T09:35:09.156Z,18.84
2019-02-25T09:36:09.158Z,19.23
2019-02-25T09:37:10.013Z,19.39
2019-02-25T09:38:09.149Z,19.34
2019-02-25T09:39:09.119Z,19.20
2019-02-25T09:40:09.126Z,19.07
2019-02-25T09:41:09.085Z,19.20
2019-02-25T09:42:09.074Z,19.52
2019-02-25T09:43:09.075Z,20.07
2019-02-25T09:44:09.048Z,20.22
2019-02-25T09:45:09.042Z,20.22
2019-02-25T09:46:09.035Z,20.17
2019-02-25T09:47:09.021Z,19.89
2019-02-25T09:48:09.076Z,19.75
2019-02-25T09:49:09.000Z,19.46
2019-02-25T09:50:08.982Z,19.38
2019-02-25T09:51:09.010Z,19.09
2019-02-25T09:52:08.989Z,19.25
2019-02-25T09:53:08.956Z,19.49
2019-02-25T09:54:08.959Z,19.86
2019-02-25T09:55:08.932Z,19.98
2019-02-25T09:56:08.924Z,19.89
2019-02-25T09:57:08.950Z,19.94
2019-02-25T09:58:08.954Z,19.95
2019-02-25T09:59:08.917Z,20.04
2019-02-25T10:00:08.879Z,19.86
2019-02-25T10:01:08.869Z,19.52
2019-02-25T10:02:08.869Z,19.01
2019-02-25T10:03:08.840Z,18.90
2019-02-25T10:04:08.926Z,18.72
2019-02-25T10:05:08.824Z,18.87
2019-02-25T10:06:08.829Z,18.93
2019-02-25T10:07:08.811Z,19.30
2019-02-25T10:08:08.797Z,19.20
2019-02-25T10:09:08.807Z,19.43
2019-02-25T10:10:08.827Z,19.40
2019-02-25T10:11:08.768Z,19.43
2019-02-25T10:12:08.757Z,19.61
2019-02-25T10:13:08.751Z,19.86
2019-02-25T10:14:08.732Z,19.95
2019-02-25T10:15:08.756Z,20.05
2019-02-25T10:16:08.707Z,20.01
2019-02-25T10:17:08.700Z,20.46
2019-02-25T10:18:08.708Z,20.63
2019-02-25T10:19:08.691Z,20.57
2019-02-25T10:20:08.681Z,20.69
2019-02-25T10:21:08.691Z,20.79
2019-02-25T10:22:08.688Z,20.91
2019-02-25T10:23:08.641Z,20.93
2019-02-25T10:24:08.636Z,21.36
2019-02-25T10:25:08.635Z,21.67
2019-02-25T10:26:08.646Z,21.53
2019-02-25T10:27:08.593Z,21.56
2019-02-25T10:28:08.588Z,21.59
2019-02-25T10:29:08.592Z,21.56
2019-02-25T10:30:08.565Z,21.08
2019-02-25T10:31:08.561Z,20.98
2019-02-25T10:32:08.572Z,21.11
2019-02-25T10:33:08.531Z,21.12
2019-02-25T10:34:08.519Z,20.97
2019-02-25T10:35:09.379Z,21.15
2019-02-25T10:36:08.950Z,21.26
2019-02-25T10:37:09.046Z,21.15
2019-02-25T10:38:08.503Z,21.61
2019-02-25T10:39:10.480Z,21.59
2019-02-25T10:40:08.468Z,21.83
2019-02-25T10:41:08.442Z,21.86
2019-02-25T10:42:08.446Z,21.74
2019-02-25T10:43:08.448Z,21.81
2019-02-25T10:44:08.552Z,21.67
2019-02-25T10:45:08.998Z,21.81
2019-02-25T10:46:09.531Z,21.85
2019-02-25T10:47:08.416Z,22.09
2019-02-25T10:48:08.415Z,22.21
2019-02-25T10:49:11.546Z,22.60
2019-02-25T10:50:08.373Z,22.61
2019-02-25T10:51:09.289Z,22.76
2019-02-25T10:52:09.215Z,22.89
2019-02-25T10:53:08.333Z,23.23
2019-02-25T10:54:11.058Z,23.01
2019-02-25T10:55:08.310Z,22.81
2019-02-25T10:56:08.310Z,22.86
2019-02-25T10:57:08.297Z,22.79
2019-02-25T10:58:08.283Z,22.81
2019-02-25T10:59:08.348Z,21.98
2019-02-25T11:00:09.606Z,21.75
2019-02-25T11:01:13.383Z,22.17
2019-02-25T11:02:11.040Z,22.44
2019-02-25T11:03:08.233Z,22.51
2019-02-25T11:04:08.256Z,22.31
2019-02-25T11:05:08.204Z,22.23
2019-02-25T11:06:08.203Z,21.82
2019-02-25T11:07:09.657Z,21.40
2019-02-25T11:08:09.527Z,20.98
2019-02-25T11:09:09.031Z,20.66
2019-02-25T11:10:08.151Z,20.40
2019-02-25T11:11:08.165Z,20.30
2019-02-25T11:12:08.136Z,20.76
2019-02-25T11:13:08.132Z,20.97
2019-02-25T11:14:09.216Z,20.97
2019-02-25T11:15:09.509Z,21.16
2019-02-25T11:16:09.728Z,21.52
2019-02-25T11:17:08.082Z,21.53
2019-02-25T11:18:08.078Z,21.67
2019-02-25T11:19:08.071Z,21.79
2019-02-25T11:20:08.283Z,21.56
2019-02-25T11:21:08.862Z,21.46
2019-02-25T11:22:09.948Z,21.55
2019-02-25T11:23:09.967Z,21.56
2019-02-25T11:24:08.006Z,21.59
2019-02-25T11:25:08.007Z,21.53
2019-02-25T11:26:09.329Z,21.55
2019-02-25T11:27:07.975Z,21.59
2019-02-25T11:28:11.250Z,21.71
2019-02-25T11:29:10.147Z,22.12
2019-02-25T11:30:09.412Z,22.33
2019-02-25T11:31:07.952Z,22.66
2019-02-25T11:32:07.953Z,22.89
2019-02-25T11:33:07.919Z,23.07
2019-02-25T11:34:08.128Z,23.54
2019-02-25T11:35:08.666Z,23.54
2019-02-25T11:36:07.878Z,23.50
2019-02-25T11:37:07.881Z,23.19
2019-02-25T11:38:07.867Z,23.00
2019-02-25T11:39:09.459Z,22.79
2019-02-25T11:40:07.839Z,23.03
2019-02-25T11:41:09.499Z,22.99
2019-02-25T11:42:10.071Z,23.01
2019-02-25T11:43:08.384Z,22.82
2019-02-25T11:44:07.823Z,22.75
2019-02-25T11:45:07.802Z,22.48
2019-02-25T11:46:07.791Z,22.66
2019-02-25T11:47:07.789Z,22.74
2019-02-25T11:48:07.775Z,22.61
2019-02-25T11:49:07.750Z,22.97
2019-02-25T11:50:07.740Z,23.29
2019-02-25T11:51:07.729Z,23.59
2019-02-25T11:52:07.714Z,23.69
2019-02-25T11:53:07.727Z,23.50
2019-02-25T11:54:07.693Z,23.63
2019-02-25T11:55:07.740Z,23.47
2019-02-25T11:56:07.675Z,23.41
2019-02-25T11:57:07.662Z,23.21
2019-02-25T11:58:07.687Z,23.23
2019-02-25T11:59:07.654Z,23.35
2019-02-25T12:00:07.633Z,23.72
2019-02-25T12:01:07.622Z,23.94
2019-02-25T12:02:08.536Z,24.14
2019-02-25T12:03:07.619Z,24.16
2019-02-25T12:04:07.626Z,23.60
2019-02-25T12:05:07.583Z,23.15
2019-02-25T12:06:07.576Z,23.44
2019-02-25T12:07:07.573Z,23.42
2019-02-25T12:08:07.575Z,23.35
2019-02-25T12:09:07.540Z,23.44
2019-02-25T12:10:07.531Z,23.16
2019-02-25T12:11:08.712Z,22.99
2019-02-25T12:12:07.520Z,23.25
2019-02-25T12:13:07.535Z,23.60
2019-02-25T12:14:07.499Z,23.71
2019-02-25T12:15:07.476Z,23.89
2019-02-25T12:16:07.516Z,23.97
2019-02-25T12:17:07.467Z,24.30
2019-02-25T12:18:07.467Z,23.99
2019-02-25T12:19:07.445Z,24.00
2019-02-25T12:20:07.495Z,24.09
2019-02-25T12:21:07.415Z,24.09
2019-02-25T12:22:07.412Z,24.06
2019-02-25T12:23:07.422Z,23.47
2019-02-25T12:24:07.394Z,23.45
2019-02-25T12:25:07.397Z,23.64
2019-02-25T12:26:07.403Z,23.82
2019-02-25T12:27:07.368Z,23.71
2019-02-25T12:28:07.347Z,23.49
2019-02-25T12:29:10.783Z,23.67
2019-02-25T12:30:07.335Z,23.93
2019-02-25T12:31:07.330Z,23.75
2019-02-25T12:32:07.329Z,23.19
2019-02-25T12:33:07.311Z,23.22
2019-02-25T12:34:07.292Z,23.32
2019-02-25T12:35:07.295Z,23.35
2019-02-25T12:36:07.275Z,23.39
2019-02-25T12:37:07.295Z,23.04
2019-02-25T12:38:07.276Z,22.85
2019-02-25T12:39:07.258Z,22.79
2019-02-25T12:40:07.225Z,22.48
2019-02-25T12:41:07.214Z,22.78
2019-02-25T12:42:07.225Z,23.16
2019-02-25T12:43:07.237Z,23.31
2019-02-25T12:44:07.212Z,23.22
2019-02-25T12:45:07.220Z,22.91
2019-02-25T12:46:07.164Z,22.42
2019-02-25T12:47:07.152Z,22.48
2019-02-25T12:48:07.150Z,22.91
2019-02-25T12:49:07.156Z,23.21
2019-02-25T12:50:07.147Z,23.60
2019-02-25T12:51:07.119Z,23.54
2019-02-25T12:52:07.112Z,23.35
2019-02-25T12:53:07.176Z,23.26
2019-02-25T12:54:07.121Z,23.29
2019-02-25T12:55:07.085Z,23.45
2019-02-25T12:56:07.083Z,23.47
2019-02-25T12:57:07.070Z,23.15
2019-02-25T12:58:07.046Z,22.89
2019-02-25T12:59:07.068Z,22.59
2019-02-25T13:00:07.059Z,22.42
2019-02-25T13:01:07.026Z,22.15
2019-02-25T13:02:07.032Z,22.09
2019-02-25T13:03:07.016Z,22.42
2019-02-25T13:04:06.985Z,22.93
2019-02-25T13:05:07.008Z,23.12
2019-02-25T13:06:06.978Z,23.57